sensor_id;sensor_type;location;lat;lon;timestamp;temperature;humidity
13264;DHT22;6700;51.988;7.646;2022-08-06T02:13:35;12.90;99.90
13264;DHT22;6700;51.988;7.646;2022-08-06T02:16:13;12.80;99.90
13264;DHT22;6700;51.988;7.646;2022-08-06T02:18:44;12.70;99.90
13264;DHT22;6700;51.988;7.646;2022-08-06T02:21:18;13.00;99.90
13264;DHT22;6700;51.988;7.646;2022-08-06T02:24:03;13.10;99.90
13264;DHT22;6700;51.988;7.646;2022-08-06T02:26:35;12.60;99.90
13264;DHT22;6700;51.988;7.646;2022-08-06T02:29:06;12.80;99.90
13264;DHT22;6700;51.988;7.646;2022-08-06T02:31:41;12.70;99.90
13264;DHT22;6700;51.988;7.646;2022-08-06T02:34:16;12.60;99.90
13264;DHT22;6700;51.988;7.646;2022-08-06T02:36:57;12.40;99.90
13264;DHT22;6700;51.988;7.646;2022-08-06T02:39:29;12.70;99.90
13264;DHT22;6700;51.988;7.646;2022-08-06T02:42:33;12.70;99.90
13264;DHT22;6700;51.988;7.646;2022-08-06T02:45:21;12.50;99.90
13264;DHT22;6700;51.988;7.646;2022-08-06T02:48:13;12.50;99.90
13264;DHT22;6700;51.988;7.646;2022-08-06T02:51:04;12.40;99.90
13264;DHT22;6700;51.988;7.646;2022-08-06T02:53:59;12.40;99.90
13264;DHT22;6700;51.988;7.646;2022-08-06T02:56:31;12.60;99.90
13264;DHT22;6700;51.988;7.646;2022-08-06T02:59:15;12.60;99.90
13264;DHT22;6700;51.988;7.646;2022-08-06T03:01:51;12.30;99.90
13264;DHT22;6700;51.988;7.646;2022-08-06T03:04:21;12.60;99.90
13264;DHT22;6700;51.988;7.646;2022-08-06T03:07:02;12.20;99.90
13264;DHT22;6700;51.988;7.646;2022-08-06T03:09:52;12.50;99.90
13264;DHT22;6700;51.988;7.646;2022-08-06T03:12:24;12.50;99.90
13264;DHT22;6700;51.988;7.646;2022-08-06T03:14:58;12.40;99.90
13264;DHT22;6700;51.988;7.646;2022-08-06T03:17:38;12.40;99.90
13264;DHT22;6700;51.988;7.646;2022-08-06T03:20:07;12.20;99.90
13264;DHT22;6700;51.988;7.646;2022-08-06T03:22:44;12.50;99.90
13264;DHT22;6700;51.988;7.646;2022-08-06T03:25:13;12.20;99.90
13264;DHT22;6700;51.988;7.646;2022-08-06T03:27:42;12.30;99.90
13264;DHT22;6700;51.988;7.646;2022-08-06T03:30:15;12.10;99.90
13264;DHT22;6700;51.988;7.646;2022-08-06T03:33:03;12.30;99.90
13264;DHT22;6700;51.988;7.646;2022-08-06T03:35:53;11.90;99.90
13264;DHT22;6700;51.988;7.646;2022-08-06T03:38:22;12.30;99.90
13264;DHT22;6700;51.988;7.646;2022-08-06T03:40:55;12.10;99.90
13264;DHT22;6700;51.988;7.646;2022-08-06T03:43:24;12.00;99.90
13264;DHT22;6700;51.988;7.646;2022-08-06T03:46:01;12.10;99.90
13264;DHT22;6700;51.988;7.646;2022-08-06T03:48:32;12.30;99.90
13264;DHT22;6700;51.988;7.646;2022-08-06T03:51:10;12.10;99.90
13264;DHT22;6700;51.988;7.646;2022-08-06T03:53:40;12.10;99.90
13264;DHT22;6700;51.988;7.646;2022-08-06T03:56:16;12.00;99.90
13264;DHT22;6700;51.988;7.646;2022-08-06T03:58:59;12.10;99.90
13264;DHT22;6700;51.988;7.646;2022-08-06T04:01:34;11.90;99.90
13264;DHT22;6700;51.988;7.646;2022-08-06T04:04:16;12.00;99.90
13264;DHT22;6700;51.988;7.646;2022-08-06T04:06:58;11.90;99.90
13264;DHT22;6700;51.988;7.646;2022-08-06T04:09:30;11.90;99.90
13264;DHT22;6700;51.988;7.646;2022-08-06T04:12:18;11.90;99.90
13264;DHT22;6700;51.988;7.646;2022-08-06T04:15:06;11.90;99.90
13264;DHT22;6700;51.988;7.646;2022-08-06T04:17:36;12.00;99.90
13264;DHT22;6700;51.988;7.646;2022-08-06T04:20:10;11.90;99.90
13264;DHT22;6700;51.988;7.646;2022-08-06T04:22:38;11.90;99.90
13264;DHT22;6700;51.988;7.646;2022-08-06T04:25:28;11.80;99.90
13264;DHT22;6700;51.988;7.646;2022-08-06T04:27:57;11.80;99.90
13264;DHT22;6700;51.988;7.646;2022-08-06T04:30:26;11.70;99.90
13264;DHT22;6700;51.988;7.646;2022-08-06T04:32:55;12.00;99.90
13264;DHT22;6700;51.988;7.646;2022-08-06T04:35:30;12.10;99.90
13264;DHT22;6700;51.988;7.646;2022-08-06T04:38:21;12.10;99.90
13264;DHT22;6700;51.988;7.646;2022-08-06T04:40:56;12.00;99.90
13264;DHT22;6700;51.988;7.646;2022-08-06T04:43:23;12.20;99.90
13264;DHT22;6700;51.988;7.646;2022-08-06T04:46:04;12.20;99.90
13264;DHT22;6700;51.988;7.646;2022-08-06T04:48:47;12.00;99.90
13264;DHT22;6700;51.988;7.646;2022-08-06T04:51:23;12.30;99.90
13264;DHT22;6700;51.988;7.646;2022-08-06T04:54:10;12.30;99.90
13264;DHT22;6700;51.988;7.646;2022-08-06T04:56:41;12.40;99.90
13264;DHT22;6700;51.988;7.646;2022-08-06T04:59:17;12.30;99.90
13264;DHT22;6700;51.988;7.646;2022-08-06T05:01:45;12.30;99.90
13264;DHT22;6700;51.988;7.646;2022-08-06T05:04:29;12.40;99.90
13264;DHT22;6700;51.988;7.646;2022-08-06T05:07:10;12.30;99.90
13264;DHT22;6700;51.988;7.646;2022-08-06T05:09:40;12.40;99.90
13264;DHT22;6700;51.988;7.646;2022-08-06T05:12:27;12.20;99.90
13264;DHT22;6700;51.988;7.646;2022-08-06T05:18:21;12.60;99.90
13264;DHT22;6700;51.988;7.646;2022-08-06T05:21:14;12.60;99.90
13264;DHT22;6700;51.988;7.646;2022-08-06T05:24:13;12.30;99.90
13264;DHT22;6700;51.988;7.646;2022-08-06T05:27:26;12.60;99.90
13264;DHT22;6700;51.988;7.646;2022-08-06T05:30:13;13.00;99.90
13264;DHT22;6700;51.988;7.646;2022-08-06T05:32:46;12.80;99.90
13264;DHT22;6700;51.988;7.646;2022-08-06T05:35:19;12.70;99.90
13264;DHT22;6700;51.988;7.646;2022-08-06T05:38:07;13.20;99.90
13264;DHT22;6700;51.988;7.646;2022-08-06T05:41:09;12.90;99.90
13264;DHT22;6700;51.988;7.646;2022-08-06T05:43:40;13.00;99.90
13264;DHT22;6700;51.988;7.646;2022-08-06T05:46:34;13.10;99.90
13264;DHT22;6700;51.988;7.646;2022-08-06T05:49:10;13.40;99.90
13264;DHT22;6700;51.988;7.646;2022-08-06T05:52:10;13.10;99.90
13264;DHT22;6700;51.988;7.646;2022-08-06T05:54:49;13.30;99.90
13264;DHT22;6700;51.988;7.646;2022-08-06T06:00:11;13.50;99.90
13264;DHT22;6700;51.988;7.646;2022-08-06T06:03:03;13.60;99.90
13264;DHT22;6700;51.988;7.646;2022-08-06T06:05:31;13.80;99.90
13264;DHT22;6700;51.988;7.646;2022-08-06T06:08:18;13.70;99.90
13264;DHT22;6700;51.988;7.646;2022-08-06T06:11:06;13.70;99.90
13264;DHT22;6700;51.988;7.646;2022-08-06T06:13:37;13.60;99.90
13264;DHT22;6700;51.988;7.646;2022-08-06T06:16:29;13.70;99.90
13264;DHT22;6700;51.988;7.646;2022-08-06T06:19:46;14.10;99.90
13264;DHT22;6700;51.988;7.646;2022-08-06T06:25:51;14.30;99.90
13264;DHT22;6700;51.988;7.646;2022-08-06T06:29:13;14.30;99.90
13264;DHT22;6700;51.988;7.646;2022-08-06T06:31:27;14.00;99.90
13264;DHT22;6700;51.988;7.646;2022-08-06T06:34:19;14.60;99.90
13264;DHT22;6700;51.988;7.646;2022-08-06T06:37:17;14.70;99.90
13264;DHT22;6700;51.988;7.646;2022-08-06T06:39:53;14.50;99.90
13264;DHT22;6700;51.988;7.646;2022-08-06T06:42:34;14.90;99.90
13264;DHT22;6700;51.988;7.646;2022-08-06T06:52:00;15.60;99.90
13264;DHT22;6700;51.988;7.646;2022-08-06T06:59:15;15.80;99.90
13264;DHT22;6700;51.988;7.646;2022-08-06T07:05:32;16.00;99.90
13264;DHT22;6700;51.988;7.646;2022-08-06T07:08:47;15.80;99.90
13264;DHT22;6700;51.988;7.646;2022-08-06T07:11:21;16.10;99.90
13264;DHT22;6700;51.988;7.646;2022-08-06T07:13:59;16.30;99.90
13264;DHT22;6700;51.988;7.646;2022-08-06T07:16:34;16.40;99.90
13264;DHT22;6700;51.988;7.646;2022-08-06T07:19:19;16.50;99.90
13264;DHT22;6700;51.988;7.646;2022-08-06T07:21:53;16.80;99.90
13264;DHT22;6700;51.988;7.646;2022-08-06T07:24:24;16.80;99.90
13264;DHT22;6700;51.988;7.646;2022-08-06T07:27:14;17.20;99.90
13264;DHT22;6700;51.988;7.646;2022-08-06T07:30:16;18.10;99.90
13264;DHT22;6700;51.988;7.646;2022-08-06T07:33:19;17.60;99.90
13264;DHT22;6700;51.988;7.646;2022-08-06T07:35:50;18.30;99.90
13264;DHT22;6700;51.988;7.646;2022-08-06T07:38:20;17.70;99.90
13264;DHT22;6700;51.988;7.646;2022-08-06T07:41:04;18.00;99.90
13264;DHT22;6700;51.988;7.646;2022-08-06T07:44:01;18.00;99.90
13264;DHT22;6700;51.988;7.646;2022-08-06T07:47:17;18.20;99.90
13264;DHT22;6700;51.988;7.646;2022-08-06T07:50:31;18.30;99.90
13264;DHT22;6700;51.988;7.646;2022-08-06T07:53:01;18.60;99.90
13264;DHT22;6700;51.988;7.646;2022-08-06T07:55:42;20.00;99.90
13264;DHT22;6700;51.988;7.646;2022-08-06T08:03:32;24.10;99.90
13264;DHT22;6700;51.988;7.646;2022-08-06T08:06:29;24.30;99.90
13264;DHT22;6700;51.988;7.646;2022-08-06T08:09:17;23.90;99.90
13264;DHT22;6700;51.988;7.646;2022-08-06T08:12:30;23.80;99.90
13264;DHT22;6700;51.988;7.646;2022-08-06T08:15:08;23.10;99.90
13264;DHT22;6700;51.988;7.646;2022-08-06T08:18:03;22.30;99.90
13264;DHT22;6700;51.988;7.646;2022-08-06T08:20:46;22.00;99.90
13264;DHT22;6700;51.988;7.646;2022-08-06T08:23:20;21.70;99.90
13264;DHT22;6700;51.988;7.646;2022-08-06T08:26:01;21.80;99.90
13264;DHT22;6700;51.988;7.646;2022-08-06T08:28:29;21.50;99.90
13264;DHT22;6700;51.988;7.646;2022-08-06T08:30:58;21.50;99.90
13264;DHT22;6700;51.988;7.646;2022-08-06T08:33:48;21.00;99.90
13264;DHT22;6700;51.988;7.646;2022-08-06T08:36:15;20.90;99.90
13264;DHT22;6700;51.988;7.646;2022-08-06T08:38:43;20.70;99.90
13264;DHT22;6700;51.988;7.646;2022-08-06T08:41:17;20.80;99.90
13264;DHT22;6700;51.988;7.646;2022-08-06T08:43:52;20.90;99.90
13264;DHT22;6700;51.988;7.646;2022-08-06T08:46:39;20.70;99.90
13264;DHT22;6700;51.988;7.646;2022-08-06T08:49:38;20.80;99.90
13264;DHT22;6700;51.988;7.646;2022-08-06T08:52:21;20.60;99.90
13264;DHT22;6700;51.988;7.646;2022-08-06T08:54:55;20.80;99.90
13264;DHT22;6700;51.988;7.646;2022-08-06T08:58:31;20.90;99.90
13264;DHT22;6700;51.988;7.646;2022-08-06T09:01:25;20.70;99.90
13264;DHT22;6700;51.988;7.646;2022-08-06T09:04:12;20.50;99.90
13264;DHT22;6700;51.988;7.646;2022-08-06T09:06:50;20.60;99.90
13264;DHT22;6700;51.988;7.646;2022-08-06T09:09:25;20.70;99.90
13264;DHT22;6700;51.988;7.646;2022-08-06T09:15:47;20.60;99.90
13264;DHT22;6700;51.988;7.646;2022-08-06T09:18:22;20.70;99.90
13264;DHT22;6700;51.988;7.646;2022-08-06T09:20:54;20.90;99.90
13264;DHT22;6700;51.988;7.646;2022-08-06T09:23:24;20.90;99.90
13264;DHT22;6700;51.988;7.646;2022-08-06T09:25:55;21.00;99.90
13264;DHT22;6700;51.988;7.646;2022-08-06T09:28:40;21.10;99.90
13264;DHT22;6700;51.988;7.646;2022-08-06T09:31:09;21.30;99.90
13264;DHT22;6700;51.988;7.646;2022-08-06T09:34:00;21.20;99.90
13264;DHT22;6700;51.988;7.646;2022-08-06T09:36:48;21.00;99.90
13264;DHT22;6700;51.988;7.646;2022-08-06T09:39:33;21.10;99.90
13264;DHT22;6700;51.988;7.646;2022-08-06T09:42:38;21.00;99.90
13264;DHT22;6700;51.988;7.646;2022-08-06T09:45:08;21.40;99.90
13264;DHT22;6700;51.988;7.646;2022-08-06T09:47:46;21.40;99.90
13264;DHT22;6700;51.988;7.646;2022-08-06T09:50:56;21.00;99.90
13264;DHT22;6700;51.988;7.646;2022-08-06T09:53:25;20.30;99.90
13264;DHT22;6700;51.988;7.646;2022-08-06T09:56:15;20.60;99.90
13264;DHT22;6700;51.988;7.646;2022-08-06T09:58:42;20.90;99.90
13264;DHT22;6700;51.988;7.646;2022-08-06T10:01:20;21.00;99.90
13264;DHT22;6700;51.988;7.646;2022-08-06T10:03:50;21.20;99.90
13264;DHT22;6700;51.988;7.646;2022-08-06T10:06:54;21.30;99.90
13264;DHT22;6700;51.988;7.646;2022-08-06T10:09:22;21.40;99.90
13264;DHT22;6700;51.988;7.646;2022-08-06T10:12:25;21.60;99.90
13264;DHT22;6700;51.988;7.646;2022-08-06T10:14:53;21.30;99.90
13264;DHT22;6700;51.988;7.646;2022-08-06T10:17:23;20.70;99.90
13264;DHT22;6700;51.988;7.646;2022-08-06T10:20:09;20.30;99.90
13264;DHT22;6700;51.988;7.646;2022-08-06T10:22:54;19.80;99.90
13264;DHT22;6700;51.988;7.646;2022-08-06T10:25:24;19.60;99.90
13264;DHT22;6700;51.988;7.646;2022-08-06T10:27:56;20.20;99.90
13264;DHT22;6700;51.988;7.646;2022-08-06T10:30:24;20.70;99.90
13264;DHT22;6700;51.988;7.646;2022-08-06T10:33:02;20.70;99.90
13264;DHT22;6700;51.988;7.646;2022-08-06T10:35:35;20.30;99.90
13264;DHT22;6700;51.988;7.646;2022-08-06T10:38:16;20.40;99.90
13264;DHT22;6700;51.988;7.646;2022-08-06T10:40:56;20.10;99.90
13264;DHT22;6700;51.988;7.646;2022-08-06T10:43:27;19.90;99.90
13264;DHT22;6700;51.988;7.646;2022-08-06T10:46:10;19.80;99.90
13264;DHT22;6700;51.988;7.646;2022-08-06T10:48:49;20.60;99.90
13264;DHT22;6700;51.988;7.646;2022-08-06T10:51:37;21.10;99.90
13264;DHT22;6700;51.988;7.646;2022-08-06T10:54:25;21.20;99.90
13264;DHT22;6700;51.988;7.646;2022-08-06T10:56:52;21.30;99.90
13264;DHT22;6700;51.988;7.646;2022-08-06T10:59:21;21.40;99.90
13264;DHT22;6700;51.988;7.646;2022-08-06T11:05:52;21.20;99.90
13264;DHT22;6700;51.988;7.646;2022-08-06T11:14:36;21.10;99.90
13264;DHT22;6700;51.988;7.646;2022-08-06T11:17:05;21.20;99.90
13264;DHT22;6700;51.988;7.646;2022-08-06T11:22:38;21.80;99.90
13264;DHT22;6700;51.988;7.646;2022-08-06T11:28:15;21.80;99.90
13264;DHT22;6700;51.988;7.646;2022-08-06T11:33:14;22.30;99.90
13264;DHT22;6700;51.988;7.646;2022-08-06T11:35:43;22.30;99.90
13264;DHT22;6700;51.988;7.646;2022-08-06T11:41:29;22.30;99.90
13264;DHT22;6700;51.988;7.646;2022-08-06T11:44:18;22.30;99.90
13264;DHT22;6700;51.988;7.646;2022-08-06T11:47:07;22.20;99.90
13264;DHT22;6700;51.988;7.646;2022-08-06T11:55:09;21.40;99.90
13264;DHT22;6700;51.988;7.646;2022-08-06T11:57:48;21.20;99.90
13264;DHT22;6700;51.988;7.646;2022-08-06T12:00:21;21.00;99.90
13264;DHT22;6700;51.988;7.646;2022-08-06T12:02:50;21.20;99.90
13264;DHT22;6700;51.988;7.646;2022-08-06T12:11:21;20.80;99.90
13264;DHT22;6700;51.988;7.646;2022-08-06T12:13:51;20.70;99.90
13264;DHT22;6700;51.988;7.646;2022-08-06T12:16:38;20.60;99.90
13264;DHT22;6700;51.988;7.646;2022-08-06T12:19:19;20.90;99.90
13264;DHT22;6700;51.988;7.646;2022-08-06T12:21:51;21.00;99.90
13264;DHT22;6700;51.988;7.646;2022-08-06T12:24:24;21.10;99.90
13264;DHT22;6700;51.988;7.646;2022-08-06T12:27:12;21.10;99.90
13264;DHT22;6700;51.988;7.646;2022-08-06T12:29:41;21.20;99.90
13264;DHT22;6700;51.988;7.646;2022-08-06T12:34:52;20.90;99.90
13264;DHT22;6700;51.988;7.646;2022-08-06T12:37:42;20.80;99.90
13264;DHT22;6700;51.988;7.646;2022-08-06T12:40:18;20.70;99.90
13264;DHT22;6700;51.988;7.646;2022-08-06T12:45:42;20.40;99.90
13264;DHT22;6700;51.988;7.646;2022-08-06T12:48:30;20.30;99.90
13264;DHT22;6700;51.988;7.646;2022-08-06T12:51:11;20.40;99.90
13264;DHT22;6700;51.988;7.646;2022-08-06T12:53:54;20.60;99.90
13264;DHT22;6700;51.988;7.646;2022-08-06T12:56:26;20.60;99.90
13264;DHT22;6700;51.988;7.646;2022-08-06T12:59:00;20.50;99.90
13264;DHT22;6700;51.988;7.646;2022-08-06T13:01:30;20.50;99.90
13264;DHT22;6700;51.988;7.646;2022-08-06T13:04:19;20.40;99.90
13264;DHT22;6700;51.988;7.646;2022-08-06T13:06:47;20.50;99.90
13264;DHT22;6700;51.988;7.646;2022-08-06T13:09:17;20.40;99.90
13264;DHT22;6700;51.988;7.646;2022-08-06T13:11:47;20.40;99.90
13264;DHT22;6700;51.988;7.646;2022-08-06T13:14:17;20.60;99.90
13264;DHT22;6700;51.988;7.646;2022-08-06T13:16:47;20.50;99.90
13264;DHT22;6700;51.988;7.646;2022-08-06T13:19:22;20.60;99.90
13264;DHT22;6700;51.988;7.646;2022-08-06T13:22:05;20.60;99.90
13264;DHT22;6700;51.988;7.646;2022-08-06T13:24:37;20.60;99.90
13264;DHT22;6700;51.988;7.646;2022-08-06T13:27:36;20.60;99.90
13264;DHT22;6700;51.988;7.646;2022-08-06T13:30:28;20.70;99.90
13264;DHT22;6700;51.988;7.646;2022-08-06T13:33:30;20.90;99.90
13264;DHT22;6700;51.988;7.646;2022-08-06T13:36:26;21.00;99.90
13264;DHT22;6700;51.988;7.646;2022-08-06T13:38:59;21.10;99.90
13264;DHT22;6700;51.988;7.646;2022-08-06T13:41:33;21.20;99.90
13264;DHT22;6700;51.988;7.646;2022-08-06T13:44:03;21.10;99.90
13264;DHT22;6700;51.988;7.646;2022-08-06T13:46:42;21.30;99.90
13264;DHT22;6700;51.988;7.646;2022-08-06T13:49:17;21.60;99.90
13264;DHT22;6700;51.988;7.646;2022-08-06T13:51:45;21.60;99.90
13264;DHT22;6700;51.988;7.646;2022-08-06T13:54:20;21.70;99.90
13264;DHT22;6700;51.988;7.646;2022-08-06T13:56:49;21.70;99.90
13264;DHT22;6700;51.988;7.646;2022-08-06T13:59:19;21.50;99.90
13264;DHT22;6700;51.988;7.646;2022-08-06T14:02:05;21.60;99.90
13264;DHT22;6700;51.988;7.646;2022-08-06T14:04:34;21.70;99.90
13264;DHT22;6700;51.988;7.646;2022-08-06T14:07:01;21.60;99.90
13264;DHT22;6700;51.988;7.646;2022-08-06T14:09:29;21.60;99.90
13264;DHT22;6700;51.988;7.646;2022-08-06T14:12:17;21.60;99.90
13264;DHT22;6700;51.988;7.646;2022-08-06T14:14:46;21.70;99.90
13264;DHT22;6700;51.988;7.646;2022-08-06T14:17:17;21.70;99.90
13264;DHT22;6700;51.988;7.646;2022-08-06T14:19:45;21.70;99.90
13264;DHT22;6700;51.988;7.646;2022-08-06T14:22:32;21.70;99.90
13264;DHT22;6700;51.988;7.646;2022-08-06T14:25:08;21.70;99.90
13264;DHT22;6700;51.988;7.646;2022-08-06T14:27:35;21.40;99.90
13264;DHT22;6700;51.988;7.646;2022-08-06T14:30:11;21.50;99.90
13264;DHT22;6700;51.988;7.646;2022-08-06T14:32:58;21.60;99.90
13264;DHT22;6700;51.988;7.646;2022-08-06T14:35:37;21.50;99.90
13264;DHT22;6700;51.988;7.646;2022-08-06T14:38:20;21.50;99.90
13264;DHT22;6700;51.988;7.646;2022-08-06T14:41:01;21.20;99.90
13264;DHT22;6700;51.988;7.646;2022-08-06T14:44:07;21.20;99.90
13264;DHT22;6700;51.988;7.646;2022-08-06T14:46:53;21.30;99.90
13264;DHT22;6700;51.988;7.646;2022-08-06T14:49:21;21.20;99.90
13264;DHT22;6700;51.988;7.646;2022-08-06T14:51:49;21.20;99.90
13264;DHT22;6700;51.988;7.646;2022-08-06T14:54:37;21.30;99.90
13264;DHT22;6700;51.988;7.646;2022-08-06T14:57:09;21.30;99.90
13264;DHT22;6700;51.988;7.646;2022-08-06T14:59:43;21.20;99.90
13264;DHT22;6700;51.988;7.646;2022-08-06T15:02:21;21.20;99.90
13264;DHT22;6700;51.988;7.646;2022-08-06T15:04:52;21.20;99.90
13264;DHT22;6700;51.988;7.646;2022-08-06T15:07:21;21.20;99.90
13264;DHT22;6700;51.988;7.646;2022-08-06T15:09:50;21.20;99.90
13264;DHT22;6700;51.988;7.646;2022-08-06T15:12:39;21.10;99.90
13264;DHT22;6700;51.988;7.646;2022-08-06T15:15:17;21.10;99.90
13264;DHT22;6700;51.988;7.646;2022-08-06T15:17:49;21.10;99.90
13264;DHT22;6700;51.988;7.646;2022-08-06T15:20:37;21.00;99.90
13264;DHT22;6700;51.988;7.646;2022-08-06T15:23:05;20.90;99.90
13264;DHT22;6700;51.988;7.646;2022-08-06T15:25:33;20.80;99.90
13264;DHT22;6700;51.988;7.646;2022-08-06T15:28:20;20.90;99.90
13264;DHT22;6700;51.988;7.646;2022-08-06T15:30:49;20.80;99.90
13264;DHT22;6700;51.988;7.646;2022-08-06T15:33:17;20.90;99.90
13264;DHT22;6700;51.988;7.646;2022-08-06T15:35:46;20.80;99.90
13264;DHT22;6700;51.988;7.646;2022-08-06T15:38:24;20.80;99.90
13264;DHT22;6700;51.988;7.646;2022-08-06T15:40:54;20.70;99.90
13264;DHT22;6700;51.988;7.646;2022-08-06T15:43:23;20.60;99.90
13264;DHT22;6700;51.988;7.646;2022-08-06T15:46:10;20.60;99.90
13264;DHT22;6700;51.988;7.646;2022-08-06T15:48:37;20.60;99.90
13264;DHT22;6700;51.988;7.646;2022-08-06T15:51:25;20.70;99.90
13264;DHT22;6700;51.988;7.646;2022-08-06T15:53:58;20.50;99.90
13264;DHT22;6700;51.988;7.646;2022-08-06T15:56:28;20.40;99.90
13264;DHT22;6700;51.988;7.646;2022-08-06T15:59:16;20.40;99.90
13264;DHT22;6700;51.988;7.646;2022-08-06T16:01:47;20.50;99.90
13264;DHT22;6700;51.988;7.646;2022-08-06T16:04:30;20.40;99.90
13264;DHT22;6700;51.988;7.646;2022-08-06T16:07:04;20.40;99.90
13264;DHT22;6700;51.988;7.646;2022-08-06T16:09:32;20.30;99.90
13264;DHT22;6700;51.988;7.646;2022-08-06T16:12:19;20.50;99.90
13264;DHT22;6700;51.988;7.646;2022-08-06T16:14:47;20.70;99.90
13264;DHT22;6700;51.988;7.646;2022-08-06T16:17:24;20.70;99.90
13264;DHT22;6700;51.988;7.646;2022-08-06T16:20:12;20.90;99.90
13264;DHT22;6700;51.988;7.646;2022-08-06T16:22:49;20.80;99.90
13264;DHT22;6700;51.988;7.646;2022-08-06T16:25:17;20.90;99.90
13264;DHT22;6700;51.988;7.646;2022-08-06T16:27:47;20.80;99.90
13264;DHT22;6700;51.988;7.646;2022-08-06T16:30:18;20.90;99.90
13264;DHT22;6700;51.988;7.646;2022-08-06T16:32:46;20.80;99.90
13264;DHT22;6700;51.988;7.646;2022-08-06T16:35:15;20.90;99.90
13264;DHT22;6700;51.988;7.646;2022-08-06T16:37:46;20.80;99.90
13264;DHT22;6700;51.988;7.646;2022-08-06T16:40:20;20.70;99.90
13264;DHT22;6700;51.988;7.646;2022-08-06T16:42:47;20.80;99.90
13264;DHT22;6700;51.988;7.646;2022-08-06T16:45:15;20.70;99.90
13264;DHT22;6700;51.988;7.646;2022-08-06T16:47:42;20.70;99.90
13264;DHT22;6700;51.988;7.646;2022-08-06T16:50:30;20.80;99.90
13264;DHT22;6700;51.988;7.646;2022-08-06T16:53:04;20.70;99.90
13264;DHT22;6700;51.988;7.646;2022-08-06T16:55:51;20.80;99.90
13264;DHT22;6700;51.988;7.646;2022-08-06T16:58:18;20.60;99.90
13264;DHT22;6700;51.988;7.646;2022-08-06T17:01:06;20.50;99.90
13264;DHT22;6700;51.988;7.646;2022-08-06T17:03:54;20.60;99.90
13264;DHT22;6700;51.988;7.646;2022-08-06T17:06:25;20.60;99.90
13264;DHT22;6700;51.988;7.646;2022-08-06T17:08:56;20.50;99.90
13264;DHT22;6700;51.988;7.646;2022-08-06T17:11:23;20.40;99.90
13264;DHT22;6700;51.988;7.646;2022-08-06T17:14:10;20.40;99.90
13264;DHT22;6700;51.988;7.646;2022-08-06T17:16:39;20.40;99.90
13264;DHT22;6700;51.988;7.646;2022-08-06T17:19:07;20.30;99.90
13264;DHT22;6700;51.988;7.646;2022-08-06T17:21:54;20.20;99.90
13264;DHT22;6700;51.988;7.646;2022-08-06T17:24:30;20.30;99.90
13264;DHT22;6700;51.988;7.646;2022-08-06T17:27:07;20.30;99.90
13264;DHT22;6700;51.988;7.646;2022-08-06T17:29:43;20.20;99.90
13264;DHT22;6700;51.988;7.646;2022-08-06T17:32:17;20.20;99.90
13264;DHT22;6700;51.988;7.646;2022-08-06T17:35:01;20.10;99.90
13264;DHT22;6700;51.988;7.646;2022-08-06T17:37:32;19.90;99.90
13264;DHT22;6700;51.988;7.646;2022-08-06T17:40:10;20.00;99.90
13264;DHT22;6700;51.988;7.646;2022-08-06T17:42:58;20.10;99.90
13264;DHT22;6700;51.988;7.646;2022-08-06T17:45:30;19.80;99.90
13264;DHT22;6700;51.988;7.646;2022-08-06T17:47:57;19.70;99.90
13264;DHT22;6700;51.988;7.646;2022-08-06T17:50:24;19.80;99.90
13264;DHT22;6700;51.988;7.646;2022-08-06T17:53:09;20.10;99.90
13264;DHT22;6700;51.988;7.646;2022-08-06T17:55:48;19.70;99.90
13264;DHT22;6700;51.988;7.646;2022-08-06T17:58:31;19.70;99.90
13264;DHT22;6700;51.988;7.646;2022-08-06T18:01:19;19.60;99.90
13264;DHT22;6700;51.988;7.646;2022-08-06T18:04:06;19.70;99.90
13264;DHT22;6700;51.988;7.646;2022-08-06T18:06:54;19.50;99.90
13264;DHT22;6700;51.988;7.646;2022-08-06T18:09:22;19.20;99.90
13264;DHT22;6700;51.988;7.646;2022-08-06T18:12:09;19.40;99.90
13264;DHT22;6700;51.988;7.646;2022-08-06T18:14:37;19.30;99.90
13264;DHT22;6700;51.988;7.646;2022-08-06T18:17:07;18.90;99.90
13264;DHT22;6700;51.988;7.646;2022-08-06T18:19:43;19.00;99.90
13264;DHT22;6700;51.988;7.646;2022-08-06T18:22:11;18.90;99.90
13264;DHT22;6700;51.988;7.646;2022-08-06T18:24:53;19.30;99.90
13264;DHT22;6700;51.988;7.646;2022-08-06T18:27:22;18.90;99.90
13264;DHT22;6700;51.988;7.646;2022-08-06T18:30:18;18.90;99.90
13264;DHT22;6700;51.988;7.646;2022-08-06T18:33:05;19.00;99.90
13264;DHT22;6700;51.988;7.646;2022-08-06T18:35:42;18.70;99.90
13264;DHT22;6700;51.988;7.646;2022-08-06T18:39:20;18.80;99.90
13264;DHT22;6700;51.988;7.646;2022-08-06T18:43:07;18.70;99.90
13264;DHT22;6700;51.988;7.646;2022-08-06T18:46:46;18.60;99.90
13264;DHT22;6700;51.988;7.646;2022-08-06T18:49:30;18.40;99.90
13264;DHT22;6700;51.988;7.646;2022-08-06T18:52:16;18.50;99.90
13264;DHT22;6700;51.988;7.646;2022-08-06T18:54:56;18.20;99.90
13264;DHT22;6700;51.988;7.646;2022-08-06T18:57:26;17.90;99.90
13264;DHT22;6700;51.988;7.646;2022-08-06T19:00:07;18.30;99.90
13264;DHT22;6700;51.988;7.646;2022-08-06T19:02:45;17.90;99.90
13264;DHT22;6700;51.988;7.646;2022-08-06T19:05:15;17.80;99.90
13264;DHT22;6700;51.988;7.646;2022-08-06T19:07:52;17.70;99.90
13264;DHT22;6700;51.988;7.646;2022-08-06T19:10:19;17.70;99.90
13264;DHT22;6700;51.988;7.646;2022-08-06T19:12:54;17.50;99.90
13264;DHT22;6700;51.988;7.646;2022-08-06T19:15:22;17.50;99.90
13264;DHT22;6700;51.988;7.646;2022-08-06T19:18:10;17.50;99.90
13264;DHT22;6700;51.988;7.646;2022-08-06T19:20:43;17.40;99.90
13264;DHT22;6700;51.988;7.646;2022-08-06T19:23:12;17.40;99.90
13264;DHT22;6700;51.988;7.646;2022-08-06T19:25:59;17.30;99.90
13264;DHT22;6700;51.988;7.646;2022-08-06T19:28:40;17.00;99.90
13264;DHT22;6700;51.988;7.646;2022-08-06T19:31:36;17.10;99.90
13264;DHT22;6700;51.988;7.646;2022-08-06T19:34:34;17.00;99.90
13264;DHT22;6700;51.988;7.646;2022-08-06T19:38:05;17.10;99.90
13264;DHT22;6700;51.988;7.646;2022-08-06T19:41:58;16.80;99.90
13264;DHT22;6700;51.988;7.646;2022-08-06T19:45:25;16.80;99.90
13264;DHT22;6700;51.988;7.646;2022-08-06T19:49:05;16.70;99.90
13264;DHT22;6700;51.988;7.646;2022-08-06T19:53:02;16.80;99.90
13264;DHT22;6700;51.988;7.646;2022-08-06T19:56:21;16.70;99.90
13264;DHT22;6700;51.988;7.646;2022-08-06T19:59:44;16.60;99.90
13264;DHT22;6700;51.988;7.646;2022-08-06T20:02:32;16.40;99.90
13264;DHT22;6700;51.988;7.646;2022-08-06T20:05:28;16.50;99.90
13264;DHT22;6700;51.988;7.646;2022-08-06T20:08:49;16.40;99.90
13264;DHT22;6700;51.988;7.646;2022-08-06T20:12:34;16.30;99.90
13264;DHT22;6700;51.988;7.646;2022-08-06T20:16:32;16.20;99.90
13264;DHT22;6700;51.988;7.646;2022-08-06T20:20:09;16.10;99.90
13264;DHT22;6700;51.988;7.646;2022-08-06T20:24:04;16.00;99.90
13264;DHT22;6700;51.988;7.646;2022-08-06T20:27:36;16.00;99.90
13264;DHT22;6700;51.988;7.646;2022-08-06T20:31:18;15.80;99.90
13264;DHT22;6700;51.988;7.646;2022-08-06T20:33:45;15.70;99.90
13264;DHT22;6700;51.988;7.646;2022-08-06T20:36:30;15.80;99.90
13264;DHT22;6700;51.988;7.646;2022-08-06T20:38:59;15.80;99.90
13264;DHT22;6700;51.988;7.646;2022-08-06T20:41:26;15.70;99.90